Time;durP1;ratioP1;P1;durP2;ratioP2;P2;SDS_P1;SDS_P2;PMS_P1;PMS_P2;Temp;Humidity;BMP_temperature;BMP_pressure;BME280_temperature;BME280_humidity;BME280_pressure;Samples;Min_cycle;Max_cycle;Signal;HPM_P1;HPM_P2
2023/08/26 00:08:23;;;;;;;25.70;19.40;;;;;;;24.83;95.64;99636.62;666539;1271;140228;-77
2023/08/26 00:23:26;;;;;;;29.80;20.20;;;;;;;24.67;98.21;99636.46;668112;1264;139376;-77
2023/08/26 00:38:30;;;;;;;33.20;23.60;;;;;;;24.61;99.97;99636.27;669200;1270;138861;-78
2023/08/26 00:53:34;;;;;;;28.30;22.80;;;;;;;24.59;100.00;99637.63;671031;1269;139637;-79
2023/08/26 01:08:38;;;;;;;31.90;24.20;;;;;;;24.14;100.00;99637.93;674443;1270;139782;-79
2023/08/26 01:23:43;;;;;;;36.40;25.20;;;;;;;23.96;100.00;99636.21;677352;1264;139429;-79
2023/08/26 01:38:47;;;;;;;33.80;24.80;;;;;;;23.94;100.00;99642.08;670816;1269;313826;-79
2023/08/26 01:53:50;;;;;;;27.60;22.20;;;;;;;24.03;100.00;99651.71;669099;1269;140265;-79
2023/08/26 02:08:54;;;;;;;32.30;23.60;;;;;;;24.02;100.00;99634.45;669682;1276;140007;-77
2023/08/26 02:23:57;;;;;;;29.10;23.10;;;;;;;23.98;100.00;99628.96;668861;1268;139167;-77
2023/08/26 02:39:01;;;;;;;24.20;21.50;;;;;;;23.65;100.00;99622.80;674073;1266;139536;-78
2023/08/26 02:54:05;;;;;;;35.80;26.90;;;;;;;23.68;100.00;99630.94;671951;1266;139760;-78
2023/08/26 03:09:08;;;;;;;29.80;23.90;;;;;;;23.59;100.00;99629.42;674074;1267;140036;-78
2023/08/26 03:24:12;;;;;;;33.10;26.00;;;;;;;23.69;100.00;99644.26;679560;1265;140250;-77
2023/08/26 03:39:16;;;;;;;33.30;25.40;;;;;;;23.43;100.00;99643.41;676821;1262;140027;-78
2023/08/26 03:54:19;;;;;;;30.40;25.80;;;;;;;23.43;100.00;99639.92;678476;1267;141204;-77
2023/08/26 04:09:23;;;;;;;34.30;24.80;;;;;;;23.24;100.00;99655.23;676769;1266;139394;-79
2023/08/26 04:24:27;;;;;;;33.30;25.00;;;;;;;23.39;100.00;99663.61;679943;1266;141073;-79
2023/08/26 04:39:30;;;;;;;37.00;31.30;;;;;;;23.89;100.00;99665.77;677933;1263;140778;-79
2023/08/26 04:54:34;;;;;;;27.40;21.20;;;;;;;24.13;100.00;99676.82;679213;1262;139387;-78
2023/08/26 05:09:38;;;;;;;35.70;26.80;;;;;;;24.31;100.00;99681.44;678430;1262;141519;-79
2023/08/26 05:24:41;;;;;;;24.90;19.50;;;;;;;24.60;100.00;99668.73;677271;1262;139715;-76
2023/08/26 05:39:44;;;;;;;23.40;16.80;;;;;;;27.44;98.50;99664.40;678850;1265;139887;-79
2023/08/26 05:54:47;;;;;;;15.50;11.20;;;;;;;29.47;89.43;99672.31;678112;1264;139570;-78
2023/08/26 06:09:51;;;;;;;16.10;10.70;;;;;;;30.72;81.57;99679.17;673562;1265;140649;-77
2023/08/26 06:24:55;;;;;;;15.50;9.50;;;;;;;31.49;76.41;99691.89;674658;1262;139610;-78
2023/08/26 06:39:58;;;;;;;11.70;8.90;;;;;;;32.45;72.03;99693.90;673845;1265;138707;-79
2023/08/26 06:55:04;;;;;;;11.40;7.80;;;;;;;32.54;70.68;99704.34;672513;1262;139079;-78
2023/08/26 07:10:08;;;;;;;8.00;6.40;;;;;;;32.53;68.41;99702.95;670086;1277;138642;-78
2023/08/26 07:25:12;;;;;;;5.60;4.90;;;;;;;32.86;67.01;99719.70;670238;1265;138293;-77
2023/08/26 07:40:16;;;;;;;3.90;3.50;;;;;;;33.83;64.43;99712.07;670909;1262;139822;-76
2023/08/26 07:55:19;;;;;;;5.50;2.70;;;;;;;32.98;61.87;99718.31;672054;1265;139882;-76
2023/08/26 08:10:23;;;;;;;3.60;2.40;;;;;;;31.39;64.00;99718.44;669725;1262;141585;-76
2023/08/26 08:25:26;;;;;;;4.90;2.40;;;;;;;32.51;62.35;99722.30;669549;1266;138304;-77
2023/08/26 08:40:29;;;;;;;5.40;2.10;;;;;;;33.83;58.15;99724.73;668579;1264;138313;-77
2023/08/26 08:55:33;;;;;;;6.70;2.30;;;;;;;34.17;56.88;99730.16;669337;1265;139045;-76
2023/08/26 09:10:37;;;;;;;6.90;2.70;;;;;;;33.61;56.22;99751.96;668570;1265;138989;-76
2023/08/26 09:26:00;;;;;;;6.60;2.20;;;;;;;34.44;56.00;99760.77;668388;1267;138081;-76
2023/08/26 09:41:04;;;;;;;18.40;3.50;;;;;;;33.48;56.12;99761.92;668090;1265;138994;-75
2023/08/26 09:56:07;;;;;;;14.20;3.70;;;;;;;32.15;59.31;99776.14;668595;1267;139255;-73
2023/08/26 10:11:12;;;;;;;5.80;3.10;;;;;;;32.16;62.16;99768.29;668032;1262;138653;-74
2023/08/26 10:26:18;;;;;;;7.60;3.50;;;;;;;31.97;63.32;99765.65;668192;1265;139487;-73
2023/08/26 10:41:22;;;;;;;7.20;5.10;;;;;;;31.64;63.38;99760.52;668500;1267;138916;-74
2023/08/26 10:56:28;;;;;;;6.00;3.30;;;;;;;31.76;63.91;99746.31;668335;1268;138261;-75
2023/08/26 11:11:32;;;;;;;8.80;4.30;;;;;;;32.69;62.51;99747.66;668251;1268;138739;-75
2023/08/26 11:26:35;;;;;;;6.00;4.10;;;;;;;32.07;62.92;99756.36;668507;1277;138170;-75
2023/08/26 11:41:39;;;;;;;8.70;3.70;;;;;;;31.68;63.36;99754.08;667914;1263;138389;-76
2023/08/26 11:56:45;;;;;;;5.30;3.50;;;;;;;31.74;64.17;99740.02;668431;1267;138476;-76
2023/08/26 12:11:48;;;;;;;69.10;10.40;;;;;;;32.11;63.31;99732.80;667957;1262;138474;-78
2023/08/26 12:26:53;;;;;;;13.80;3.80;;;;;;;32.04;62.25;99729.83;667727;1265;139357;-77
2023/08/26 12:41:56;;;;;;;11.90;4.00;;;;;;;31.45;63.39;99744.66;668108;1263;139460;-76
2023/08/26 12:57:00;;;;;;;14.90;3.90;;;;;;;30.96;64.68;99763.04;670808;1271;139968;-75
2023/08/26 13:12:04;;;;;;;13.90;5.30;;;;;;;30.02;69.55;99824.80;668325;1266;138412;-77
2023/08/26 13:27:08;;;;;;;7.30;3.60;;;;;;;28.54;77.14;99867.84;668153;1265;140156;-75
2023/08/26 13:42:12;;;;;;;5.30;3.80;;;;;;;28.31;79.41;99859.77;667977;1264;167602;-75
2023/08/26 13:57:16;;;;;;;5.60;4.30;;;;;;;29.11;78.23;99836.77;669619;1263;139282;-75
2023/08/26 14:12:19;;;;;;;8.70;6.20;;;;;;;29.39;77.84;99816.41;669303;1263;139147;-80
2023/08/26 14:27:23;;;;;;;5.80;5.20;;;;;;;29.61;77.06;99811.75;670116;1263;140133;-75
2023/08/26 14:42:26;;;;;;;7.60;5.10;;;;;;;30.61;73.86;99808.21;670162;1260;138462;-79
2023/08/26 14:57:30;;;;;;;13.50;6.60;;;;;;;31.09;70.83;99792.99;668749;1265;139780;-75
2023/08/26 15:12:33;;;;;;;12.30;5.50;;;;;;;31.46;68.48;99788.65;668958;1265;138410;-81
2023/08/26 15:27:36;;;;;;;7.00;4.80;;;;;;;31.40;67.76;99782.54;670796;1264;139237;-76
2023/08/26 15:42:40;;;;;;;6.80;4.20;;;;;;;31.57;65.89;99791.27;668192;1275;140751;-78
2023/08/26 15:57:43;;;;;;;7.80;3.60;;;;;;;31.39;64.06;99785.18;667943;1273;138587;-76
2023/08/26 16:12:47;;;;;;;4.90;3.00;;;;;;;31.10;63.61;99782.41;669635;1265;139172;-80
2023/08/26 16:27:50;;;;;;;19.50;3.80;;;;;;;30.96;62.91;99789.19;668136;1263;138550;-74
2023/08/26 16:42:54;;;;;;;5.10;3.00;;;;;;;30.59;62.75;99804.19;668645;1273;142645;-75
2023/08/26 16:57:58;;;;;;;5.10;3.00;;;;;;;30.51;63.45;99812.23;668306;1265;140587;-77
2023/08/26 17:13:03;;;;;;;13.80;6.70;;;;;;;30.09;63.79;99827.67;668867;1263;139337;-75
2023/08/26 17:28:06;;;;;;;9.50;4.20;;;;;;;29.52;64.41;99798.67;668435;1261;138363;-75
2023/08/26 17:43:10;;;;;;;9.00;3.80;;;;;;;28.69;66.10;99790.23;669044;1265;139116;-75
2023/08/26 17:58:13;;;;;;;7.30;4.00;;;;;;;27.67;68.50;99796.41;670647;1264;138717;-75
2023/08/26 18:13:17;;;;;;;22.70;18.00;;;;;;;26.84;70.63;99807.83;669099;1264;138935;-76
2023/08/26 18:28:20;;;;;;;10.90;8.00;;;;;;;26.22;72.35;99812.63;669104;1261;138567;-76
2023/08/26 18:43:24;;;;;;;17.60;12.20;;;;;;;25.68;74.32;99813.73;669226;1263;140318;-77
2023/08/26 18:58:27;;;;;;;8.40;6.00;;;;;;;25.24;75.65;99843.27;670201;1273;139801;-75
2023/08/26 19:13:31;;;;;;;12.30;6.00;;;;;;;24.82;76.82;99859.33;669819;1266;139713;-76
2023/08/26 19:28:34;;;;;;;13.30;6.10;;;;;;;24.64;77.81;99875.12;670030;1260;139060;-76
2023/08/26 19:43:38;;;;;;;8.90;5.80;;;;;;;24.53;79.20;99874.22;670051;1263;140880;-76
2023/08/26 19:58:43;;;;;;;14.90;7.60;;;;;;;24.54;80.68;99866.28;669291;1264;139452;-76
2023/08/26 20:13:48;;;;;;;14.30;8.20;;;;;;;24.36;81.40;99853.64;669726;1264;140526;-76
2023/08/26 20:28:51;;;;;;;24.50;13.10;;;;;;;24.20;83.79;99873.57;668261;1261;139609;-76
2023/08/26 20:43:55;;;;;;;15.90;8.50;;;;;;;23.99;84.77;99868.19;667948;1263;139462;-76
2023/08/26 20:58:59;;;;;;;22.10;10.90;;;;;;;23.51;87.75;99874.01;668302;1275;139584;-76
2023/08/26 21:14:02;;;;;;;20.20;11.50;;;;;;;23.46;89.23;99892.34;668495;1264;140427;-76
2023/08/26 21:29:06;;;;;;;16.60;10.40;;;;;;;23.44;90.31;99873.63;668327;1263;139602;-76
2023/08/26 21:44:10;;;;;;;21.80;12.90;;;;;;;23.43;90.77;99871.09;668909;1259;141585;-76
2023/08/26 21:59:13;;;;;;;19.90;12.90;;;;;;;23.08;94.52;99904.71;667757;1263;140813;-76
2023/08/26 22:14:17;;;;;;;14.00;11.00;;;;;;;22.99;94.71;99897.06;667650;1263;139418;-76
2023/08/26 22:30:17;;;;;;;17.00;10.80;;;;;;;22.99;93.76;99915.24;668994;1264;139556;-76
2023/08/26 22:45:20;;;;;;;15.10;9.60;;;;;;;22.64;94.38;99911.73;673247;1263;139557;-75
2023/08/26 23:00:23;;;;;;;13.60;8.60;;;;;;;22.49;96.01;99904.79;670171;1264;140240;-75
2023/08/26 23:15:27;;;;;;;14.80;11.20;;;;;;;22.60;95.74;99898.07;673585;1259;139447;-74
2023/08/26 23:30:31;;;;;;;19.70;13.00;;;;;;;22.40;97.08;99863.16;673030;1264;139723;-75
2023/08/26 23:45:34;;;;;;;13.80;9.90;;;;;;;22.31;97.68;99867.23;673011;1264;140376;-74
